sensor_id;sensor_type;location;lat;lon;timestamp;P1;durP1;ratioP1;P2;durP2;ratioP2
3712;SDS011;1872;51.406;6.856;2023-03-25T00:00:06;3.83;;;1.70;;
3712;SDS011;1872;51.406;6.856;2023-03-25T00:02:42;2.17;;;1.80;;
3712;SDS011;1872;51.406;6.856;2023-03-25T00:05:09;1.97;;;1.57;;
3712;SDS011;1872;51.406;6.856;2023-03-25T00:07:39;1.57;;;1.47;;
3712;SDS011;1872;51.406;6.856;2023-03-25T00:10:05;1.50;;;1.40;;
3712;SDS011;1872;51.406;6.856;2023-03-25T00:12:32;1.73;;;1.63;;
3712;SDS011;1872;51.406;6.856;2023-03-25T00:14:57;1.90;;;1.80;;
3712;SDS011;1872;51.406;6.856;2023-03-25T00:17:24;2.63;;;1.60;;
3712;SDS011;1872;51.406;6.856;2023-03-25T00:19:53;2.63;;;1.63;;
3712;SDS011;1872;51.406;6.856;2023-03-25T00:22:19;1.63;;;1.53;;
3712;SDS011;1872;51.406;6.856;2023-03-25T00:24:46;2.70;;;2.30;;
3712;SDS011;1872;51.406;6.856;2023-03-25T00:27:13;2.80;;;1.73;;
3712;SDS011;1872;51.406;6.856;2023-03-25T00:29:41;1.80;;;1.60;;
3712;SDS011;1872;51.406;6.856;2023-03-25T00:32:08;2.10;;;2.00;;
3712;SDS011;1872;51.406;6.856;2023-03-25T00:34:34;2.37;;;1.33;;
3712;SDS011;1872;51.406;6.856;2023-03-25T00:37:05;3.33;;;1.70;;
3712;SDS011;1872;51.406;6.856;2023-03-25T00:39:33;4.50;;;1.80;;
3712;SDS011;1872;51.406;6.856;2023-03-25T00:41:59;2.20;;;1.53;;
3712;SDS011;1872;51.406;6.856;2023-03-25T00:44:26;6.23;;;2.03;;
3712;SDS011;1872;51.406;6.856;2023-03-25T00:46:52;3.30;;;2.00;;
3712;SDS011;1872;51.406;6.856;2023-03-25T00:49:17;1.73;;;1.63;;
3712;SDS011;1872;51.406;6.856;2023-03-25T00:51:43;3.80;;;2.70;;
3712;SDS011;1872;51.406;6.856;2023-03-25T00:54:10;3.67;;;1.73;;
3712;SDS011;1872;51.406;6.856;2023-03-25T00:56:36;2.83;;;2.00;;
3712;SDS011;1872;51.406;6.856;2023-03-25T00:59:02;3.93;;;2.50;;
3712;SDS011;1872;51.406;6.856;2023-03-25T01:01:28;4.10;;;1.90;;
3712;SDS011;1872;51.406;6.856;2023-03-25T01:03:55;4.67;;;1.87;;
3712;SDS011;1872;51.406;6.856;2023-03-25T01:06:33;3.00;;;1.80;;
3712;SDS011;1872;51.406;6.856;2023-03-25T01:09:00;2.83;;;1.90;;
3712;SDS011;1872;51.406;6.856;2023-03-25T01:11:28;2.40;;;1.83;;
3712;SDS011;1872;51.406;6.856;2023-03-25T01:13:58;1.67;;;1.57;;
3712;SDS011;1872;51.406;6.856;2023-03-25T01:16:25;2.93;;;1.97;;
3712;SDS011;1872;51.406;6.856;2023-03-25T01:18:52;4.77;;;2.10;;
3712;SDS011;1872;51.406;6.856;2023-03-25T01:21:19;2.50;;;1.70;;
3712;SDS011;1872;51.406;6.856;2023-03-25T01:23:44;4.40;;;1.70;;
3712;SDS011;1872;51.406;6.856;2023-03-25T01:26:10;2.30;;;1.90;;
3712;SDS011;1872;51.406;6.856;2023-03-25T01:28:40;2.20;;;2.10;;
3712;SDS011;1872;51.406;6.856;2023-03-25T01:31:07;4.30;;;2.07;;
3712;SDS011;1872;51.406;6.856;2023-03-25T01:33:35;2.60;;;2.00;;
3712;SDS011;1872;51.406;6.856;2023-03-25T01:36:01;2.40;;;1.70;;
3712;SDS011;1872;51.406;6.856;2023-03-25T01:38:28;1.87;;;1.77;;
3712;SDS011;1872;51.406;6.856;2023-03-25T01:40:54;3.83;;;2.20;;
3712;SDS011;1872;51.406;6.856;2023-03-25T01:43:21;1.90;;;1.73;;
3712;SDS011;1872;51.406;6.856;2023-03-25T01:45:47;3.90;;;1.50;;
3712;SDS011;1872;51.406;6.856;2023-03-25T01:48:20;3.83;;;2.23;;
3712;SDS011;1872;51.406;6.856;2023-03-25T01:51:00;2.53;;;1.80;;
3712;SDS011;1872;51.406;6.856;2023-03-25T01:53:33;3.70;;;2.13;;
3712;SDS011;1872;51.406;6.856;2023-03-25T01:55:59;5.90;;;2.47;;
3712;SDS011;1872;51.406;6.856;2023-03-25T01:58:29;3.37;;;2.17;;
3712;SDS011;1872;51.406;6.856;2023-03-25T02:00:56;2.30;;;1.80;;
3712;SDS011;1872;51.406;6.856;2023-03-25T02:03:21;3.33;;;1.97;;
3712;SDS011;1872;51.406;6.856;2023-03-25T02:08:27;2.57;;;1.80;;
3712;SDS011;1872;51.406;6.856;2023-03-25T02:10:57;4.63;;;1.90;;
3712;SDS011;1872;51.406;6.856;2023-03-25T02:13:23;2.93;;;1.93;;
3712;SDS011;1872;51.406;6.856;2023-03-25T02:27:39;1.80;;;1.70;;
3712;SDS011;1872;51.406;6.856;2023-03-25T02:38:58;2.77;;;1.97;;
3712;SDS011;1872;51.406;6.856;2023-03-25T02:44:48;2.00;;;1.73;;
3712;SDS011;1872;51.406;6.856;2023-03-25T02:46:54;2.77;;;2.20;;
3712;SDS011;1872;51.406;6.856;2023-03-25T02:49:28;3.53;;;1.97;;
3712;SDS011;1872;51.406;6.856;2023-03-25T02:52:10;2.63;;;1.90;;
3712;SDS011;1872;51.406;6.856;2023-03-25T02:54:41;2.90;;;1.90;;
3712;SDS011;1872;51.406;6.856;2023-03-25T02:57:09;2.00;;;1.83;;
3712;SDS011;1872;51.406;6.856;2023-03-25T02:59:37;2.10;;;1.73;;
3712;SDS011;1872;51.406;6.856;2023-03-25T03:02:08;2.00;;;1.80;;
3712;SDS011;1872;51.406;6.856;2023-03-25T03:04:48;2.30;;;2.20;;
3712;SDS011;1872;51.406;6.856;2023-03-25T03:07:20;1.43;;;1.33;;
3712;SDS011;1872;51.406;6.856;2023-03-25T03:10:38;3.73;;;2.13;;
3712;SDS011;1872;51.406;6.856;2023-03-25T03:21:16;1.70;;;1.60;;
3712;SDS011;1872;51.406;6.856;2023-03-25T03:23:54;1.83;;;1.73;;
3712;SDS011;1872;51.406;6.856;2023-03-25T03:32:12;2.47;;;1.93;;
3712;SDS011;1872;51.406;6.856;2023-03-25T03:34:42;2.60;;;2.27;;
3712;SDS011;1872;51.406;6.856;2023-03-25T03:37:16;3.57;;;2.03;;
3712;SDS011;1872;51.406;6.856;2023-03-25T03:39:45;2.87;;;2.60;;
3712;SDS011;1872;51.406;6.856;2023-03-25T03:42:14;3.43;;;2.27;;
3712;SDS011;1872;51.406;6.856;2023-03-25T03:44:48;2.20;;;1.97;;
3712;SDS011;1872;51.406;6.856;2023-03-25T03:47:18;4.93;;;1.93;;
3712;SDS011;1872;51.406;6.856;2023-03-25T03:49:51;2.43;;;2.23;;
3712;SDS011;1872;51.406;6.856;2023-03-25T03:52:27;3.20;;;2.60;;
3712;SDS011;1872;51.406;6.856;2023-03-25T03:55:01;2.37;;;2.17;;
3712;SDS011;1872;51.406;6.856;2023-03-25T03:57:39;4.00;;;1.90;;
3712;SDS011;1872;51.406;6.856;2023-03-25T04:01:12;2.47;;;2.00;;
3712;SDS011;1872;51.406;6.856;2023-03-25T04:03:14;1.93;;;1.83;;
3712;SDS011;1872;51.406;6.856;2023-03-25T04:05:59;5.40;;;1.80;;
3712;SDS011;1872;51.406;6.856;2023-03-25T04:08:53;2.00;;;1.90;;
3712;SDS011;1872;51.406;6.856;2023-03-25T04:11:24;4.70;;;4.10;;
3712;SDS011;1872;51.406;6.856;2023-03-25T04:13:57;2.00;;;1.90;;
3712;SDS011;1872;51.406;6.856;2023-03-25T04:16:25;2.53;;;2.30;;
3712;SDS011;1872;51.406;6.856;2023-03-25T04:18:50;2.90;;;2.10;;
3712;SDS011;1872;51.406;6.856;2023-03-25T04:21:17;3.03;;;1.67;;
3712;SDS011;1872;51.406;6.856;2023-03-25T04:23:44;2.40;;;2.20;;
3712;SDS011;1872;51.406;6.856;2023-03-25T04:26:11;2.27;;;1.83;;
3712;SDS011;1872;51.406;6.856;2023-03-25T04:28:39;3.77;;;2.30;;
3712;SDS011;1872;51.406;6.856;2023-03-25T04:31:12;3.83;;;1.83;;
3712;SDS011;1872;51.406;6.856;2023-03-25T04:33:40;3.17;;;1.97;;
3712;SDS011;1872;51.406;6.856;2023-03-25T04:36:10;2.03;;;1.93;;
3712;SDS011;1872;51.406;6.856;2023-03-25T04:38:37;5.67;;;2.20;;
3712;SDS011;1872;51.406;6.856;2023-03-25T04:41:04;3.77;;;1.83;;
3712;SDS011;1872;51.406;6.856;2023-03-25T04:43:31;4.97;;;2.50;;
3712;SDS011;1872;51.406;6.856;2023-03-25T04:45:57;4.07;;;2.10;;
3712;SDS011;1872;51.406;6.856;2023-03-25T04:48:25;2.83;;;1.87;;
3712;SDS011;1872;51.406;6.856;2023-03-25T04:50:56;6.57;;;2.07;;
3712;SDS011;1872;51.406;6.856;2023-03-25T04:53:23;3.17;;;2.00;;
3712;SDS011;1872;51.406;6.856;2023-03-25T04:55:50;3.57;;;2.23;;
3712;SDS011;1872;51.406;6.856;2023-03-25T04:58:16;4.37;;;2.10;;
3712;SDS011;1872;51.406;6.856;2023-03-25T05:00:45;3.80;;;2.17;;
3712;SDS011;1872;51.406;6.856;2023-03-25T05:03:14;2.57;;;2.20;;
3712;SDS011;1872;51.406;6.856;2023-03-25T05:05:40;1.80;;;1.70;;
3712;SDS011;1872;51.406;6.856;2023-03-25T05:08:06;6.03;;;2.80;;
3712;SDS011;1872;51.406;6.856;2023-03-25T05:10:33;2.33;;;1.97;;
3712;SDS011;1872;51.406;6.856;2023-03-25T05:13:04;2.97;;;1.93;;
3712;SDS011;1872;51.406;6.856;2023-03-25T05:15:31;5.23;;;2.23;;
3712;SDS011;1872;51.406;6.856;2023-03-25T05:18:07;6.13;;;2.63;;
3712;SDS011;1872;51.406;6.856;2023-03-25T05:20:41;2.40;;;2.20;;
3712;SDS011;1872;51.406;6.856;2023-03-25T05:23:09;4.33;;;2.07;;
3712;SDS011;1872;51.406;6.856;2023-03-25T05:25:41;3.13;;;2.27;;
3712;SDS011;1872;51.406;6.856;2023-03-25T05:28:12;4.13;;;2.00;;
3712;SDS011;1872;51.406;6.856;2023-03-25T05:30:38;3.77;;;2.07;;
3712;SDS011;1872;51.406;6.856;2023-03-25T05:33:09;2.33;;;1.80;;
3712;SDS011;1872;51.406;6.856;2023-03-25T05:35:39;2.83;;;2.57;;
3712;SDS011;1872;51.406;6.856;2023-03-25T05:38:08;6.47;;;2.00;;
3712;SDS011;1872;51.406;6.856;2023-03-25T05:40:36;3.23;;;2.03;;
3712;SDS011;1872;51.406;6.856;2023-03-25T05:43:02;4.93;;;2.33;;
3712;SDS011;1872;51.406;6.856;2023-03-25T05:45:30;3.63;;;1.80;;
3712;SDS011;1872;51.406;6.856;2023-03-25T05:47:57;2.70;;;2.10;;
3712;SDS011;1872;51.406;6.856;2023-03-25T05:50:24;3.03;;;2.03;;
3712;SDS011;1872;51.406;6.856;2023-03-25T05:52:52;5.23;;;1.97;;
3712;SDS011;1872;51.406;6.856;2023-03-25T05:55:19;3.07;;;1.83;;
3712;SDS011;1872;51.406;6.856;2023-03-25T05:57:46;4.90;;;2.23;;
3712;SDS011;1872;51.406;6.856;2023-03-25T06:00:12;2.73;;;2.33;;
3712;SDS011;1872;51.406;6.856;2023-03-25T06:02:40;2.70;;;2.30;;
3712;SDS011;1872;51.406;6.856;2023-03-25T06:05:07;2.47;;;2.10;;
3712;SDS011;1872;51.406;6.856;2023-03-25T06:07:34;4.47;;;2.00;;
3712;SDS011;1872;51.406;6.856;2023-03-25T06:10:02;3.63;;;2.33;;
3712;SDS011;1872;51.406;6.856;2023-03-25T06:12:29;2.20;;;1.97;;
3712;SDS011;1872;51.406;6.856;2023-03-25T06:14:57;2.00;;;1.73;;
3712;SDS011;1872;51.406;6.856;2023-03-25T06:17:23;5.17;;;2.50;;
3712;SDS011;1872;51.406;6.856;2023-03-25T06:19:50;4.90;;;2.27;;
3712;SDS011;1872;51.406;6.856;2023-03-25T06:22:16;3.33;;;1.70;;
3712;SDS011;1872;51.406;6.856;2023-03-25T06:24:46;3.83;;;2.53;;
3712;SDS011;1872;51.406;6.856;2023-03-25T06:27:16;4.37;;;2.70;;
3712;SDS011;1872;51.406;6.856;2023-03-25T06:29:43;3.20;;;1.90;;
3712;SDS011;1872;51.406;6.856;2023-03-25T06:32:12;3.53;;;2.60;;
3712;SDS011;1872;51.406;6.856;2023-03-25T06:34:41;4.30;;;1.93;;
3712;SDS011;1872;51.406;6.856;2023-03-25T06:37:07;3.00;;;1.90;;
3712;SDS011;1872;51.406;6.856;2023-03-25T06:39:34;3.23;;;2.40;;
3712;SDS011;1872;51.406;6.856;2023-03-25T06:42:02;4.50;;;2.20;;
3712;SDS011;1872;51.406;6.856;2023-03-25T06:44:28;6.97;;;2.20;;
3712;SDS011;1872;51.406;6.856;2023-03-25T06:46:54;5.90;;;1.97;;
3712;SDS011;1872;51.406;6.856;2023-03-25T06:49:20;3.03;;;2.40;;
3712;SDS011;1872;51.406;6.856;2023-03-25T06:51:46;3.97;;;2.20;;
3712;SDS011;1872;51.406;6.856;2023-03-25T06:54:12;2.67;;;2.13;;
3712;SDS011;1872;51.406;6.856;2023-03-25T06:56:38;5.10;;;2.10;;
3712;SDS011;1872;51.406;6.856;2023-03-25T06:59:04;2.20;;;2.00;;
3712;SDS011;1872;51.406;6.856;2023-03-25T07:01:30;5.30;;;2.53;;
3712;SDS011;1872;51.406;6.856;2023-03-25T07:03:56;3.53;;;3.10;;
3712;SDS011;1872;51.406;6.856;2023-03-25T07:06:22;4.63;;;2.30;;
3712;SDS011;1872;51.406;6.856;2023-03-25T07:08:48;2.20;;;2.00;;
3712;SDS011;1872;51.406;6.856;2023-03-25T07:11:15;4.30;;;2.43;;
3712;SDS011;1872;51.406;6.856;2023-03-25T07:13:46;5.47;;;2.13;;
3712;SDS011;1872;51.406;6.856;2023-03-25T07:16:12;7.13;;;2.43;;
3712;SDS011;1872;51.406;6.856;2023-03-25T07:18:38;3.67;;;2.63;;
3712;SDS011;1872;51.406;6.856;2023-03-25T07:21:03;5.73;;;2.37;;
3712;SDS011;1872;51.406;6.856;2023-03-25T07:23:29;3.43;;;2.33;;
3712;SDS011;1872;51.406;6.856;2023-03-25T07:25:55;7.73;;;2.47;;
3712;SDS011;1872;51.406;6.856;2023-03-25T07:28:21;4.90;;;2.10;;
3712;SDS011;1872;51.406;6.856;2023-03-25T07:30:47;5.90;;;2.60;;
3712;SDS011;1872;51.406;6.856;2023-03-25T07:33:13;3.00;;;2.20;;
3712;SDS011;1872;51.406;6.856;2023-03-25T07:35:39;3.10;;;2.17;;
3712;SDS011;1872;51.406;6.856;2023-03-25T07:38:04;3.10;;;2.53;;
3712;SDS011;1872;51.406;6.856;2023-03-25T07:40:30;3.77;;;2.40;;
3712;SDS011;1872;51.406;6.856;2023-03-25T07:42:56;7.33;;;2.53;;
3712;SDS011;1872;51.406;6.856;2023-03-25T07:45:22;5.30;;;2.37;;
3712;SDS011;1872;51.406;6.856;2023-03-25T07:47:47;6.37;;;2.67;;
3712;SDS011;1872;51.406;6.856;2023-03-25T07:50:20;5.57;;;2.27;;
3712;SDS011;1872;51.406;6.856;2023-03-25T07:52:47;4.57;;;2.40;;
3712;SDS011;1872;51.406;6.856;2023-03-25T07:55:13;7.13;;;2.30;;
3712;SDS011;1872;51.406;6.856;2023-03-25T07:57:41;3.03;;;1.93;;
3712;SDS011;1872;51.406;6.856;2023-03-25T08:00:09;3.73;;;2.53;;
3712;SDS011;1872;51.406;6.856;2023-03-25T08:02:36;5.47;;;2.60;;
3712;SDS011;1872;51.406;6.856;2023-03-25T08:05:03;3.67;;;2.80;;
3712;SDS011;1872;51.406;6.856;2023-03-25T08:07:31;4.13;;;2.70;;
3712;SDS011;1872;51.406;6.856;2023-03-25T08:09:57;2.33;;;2.17;;
3712;SDS011;1872;51.406;6.856;2023-03-25T08:12:22;2.90;;;2.40;;
3712;SDS011;1872;51.406;6.856;2023-03-25T08:14:49;4.43;;;2.47;;
3712;SDS011;1872;51.406;6.856;2023-03-25T08:17:15;4.17;;;2.27;;
3712;SDS011;1872;51.406;6.856;2023-03-25T08:19:41;7.43;;;2.73;;
3712;SDS011;1872;51.406;6.856;2023-03-25T08:22:06;4.07;;;2.40;;
3712;SDS011;1872;51.406;6.856;2023-03-25T08:24:32;6.93;;;3.03;;
3712;SDS011;1872;51.406;6.856;2023-03-25T08:26:58;3.10;;;2.80;;
3712;SDS011;1872;51.406;6.856;2023-03-25T08:29:26;5.27;;;2.60;;
3712;SDS011;1872;51.406;6.856;2023-03-25T08:31:53;3.40;;;2.53;;
3712;SDS011;1872;51.406;6.856;2023-03-25T08:34:20;3.73;;;2.97;;
3712;SDS011;1872;51.406;6.856;2023-03-25T08:36:47;6.23;;;2.57;;
3712;SDS011;1872;51.406;6.856;2023-03-25T08:39:15;5.90;;;3.10;;
3712;SDS011;1872;51.406;6.856;2023-03-25T08:41:41;5.90;;;2.67;;
3712;SDS011;1872;51.406;6.856;2023-03-25T08:44:08;5.60;;;3.33;;
3712;SDS011;1872;51.406;6.856;2023-03-25T08:46:34;3.30;;;2.57;;
3712;SDS011;1872;51.406;6.856;2023-03-25T08:49:00;4.90;;;2.13;;
3712;SDS011;1872;51.406;6.856;2023-03-25T08:51:27;6.63;;;3.17;;
3712;SDS011;1872;51.406;6.856;2023-03-25T08:53:52;3.53;;;2.50;;
3712;SDS011;1872;51.406;6.856;2023-03-25T08:56:18;4.00;;;2.57;;
3712;SDS011;1872;51.406;6.856;2023-03-25T08:58:44;6.90;;;2.80;;
3712;SDS011;1872;51.406;6.856;2023-03-25T09:01:10;5.40;;;2.87;;
3712;SDS011;1872;51.406;6.856;2023-03-25T09:03:36;4.47;;;2.90;;
3712;SDS011;1872;51.406;6.856;2023-03-25T09:06:06;4.40;;;3.10;;
3712;SDS011;1872;51.406;6.856;2023-03-25T09:08:32;7.67;;;2.67;;
3712;SDS011;1872;51.406;6.856;2023-03-25T09:11:00;3.90;;;1.87;;
3712;SDS011;1872;51.406;6.856;2023-03-25T09:13:26;6.13;;;2.70;;
3712;SDS011;1872;51.406;6.856;2023-03-25T09:15:52;5.60;;;2.30;;
3712;SDS011;1872;51.406;6.856;2023-03-25T09:18:18;7.50;;;3.20;;
3712;SDS011;1872;51.406;6.856;2023-03-25T09:20:43;3.63;;;2.60;;
3712;SDS011;1872;51.406;6.856;2023-03-25T09:23:12;5.03;;;3.03;;
3712;SDS011;1872;51.406;6.856;2023-03-25T09:25:42;7.97;;;4.87;;
3712;SDS011;1872;51.406;6.856;2023-03-25T09:28:08;5.07;;;2.73;;
3712;SDS011;1872;51.406;6.856;2023-03-25T09:30:34;4.35;;;3.20;;
3712;SDS011;1872;51.406;6.856;2023-03-25T09:33:00;7.75;;;3.10;;
3712;SDS011;1872;51.406;6.856;2023-03-25T09:35:26;10.37;;;2.90;;
3712;SDS011;1872;51.406;6.856;2023-03-25T09:37:52;5.93;;;3.53;;
3712;SDS011;1872;51.406;6.856;2023-03-25T09:40:18;9.30;;;3.30;;
3712;SDS011;1872;51.406;6.856;2023-03-25T09:45:43;6.60;;;3.03;;
3712;SDS011;1872;51.406;6.856;2023-03-25T09:48:28;8.67;;;2.93;;
3712;SDS011;1872;51.406;6.856;2023-03-25T09:51:03;10.73;;;3.27;;
3712;SDS011;1872;51.406;6.856;2023-03-25T09:53:39;7.07;;;3.03;;
3712;SDS011;1872;51.406;6.856;2023-03-25T09:56:11;9.13;;;2.80;;
3712;SDS011;1872;51.406;6.856;2023-03-25T10:09:50;7.47;;;2.90;;
3712;SDS011;1872;51.406;6.856;2023-03-25T10:18:03;7.17;;;2.50;;
3712;SDS011;1872;51.406;6.856;2023-03-25T10:21:05;6.53;;;3.20;;
3712;SDS011;1872;51.406;6.856;2023-03-25T10:23:40;7.33;;;3.33;;
3712;SDS011;1872;51.406;6.856;2023-03-25T10:26:14;4.37;;;2.60;;
3712;SDS011;1872;51.406;6.856;2023-03-25T10:28:51;7.00;;;3.03;;
3712;SDS011;1872;51.406;6.856;2023-03-25T10:31:21;5.40;;;2.90;;
3712;SDS011;1872;51.406;6.856;2023-03-25T10:33:56;4.60;;;3.13;;
3712;SDS011;1872;51.406;6.856;2023-03-25T10:36:48;4.57;;;3.27;;
3712;SDS011;1872;51.406;6.856;2023-03-25T10:39:17;6.50;;;3.20;;
3712;SDS011;1872;51.406;6.856;2023-03-25T10:41:46;4.20;;;2.63;;
3712;SDS011;1872;51.406;6.856;2023-03-25T10:44:19;7.40;;;2.90;;
3712;SDS011;1872;51.406;6.856;2023-03-25T10:49:23;6.73;;;2.60;;
3712;SDS011;1872;51.406;6.856;2023-03-25T10:51:52;3.67;;;2.33;;
3712;SDS011;1872;51.406;6.856;2023-03-25T10:54:18;4.10;;;2.50;;
3712;SDS011;1872;51.406;6.856;2023-03-25T10:56:47;4.27;;;2.53;;
3712;SDS011;1872;51.406;6.856;2023-03-25T11:02:01;3.83;;;2.00;;
3712;SDS011;1872;51.406;6.856;2023-03-25T11:04:37;6.68;;;2.08;;
3712;SDS011;1872;51.406;6.856;2023-03-25T11:07:19;4.47;;;2.63;;
3712;SDS011;1872;51.406;6.856;2023-03-25T11:12:49;4.87;;;3.40;;
3712;SDS011;1872;51.406;6.856;2023-03-25T11:15:23;7.50;;;2.80;;
3712;SDS011;1872;51.406;6.856;2023-03-25T11:20:38;6.70;;;3.13;;
3712;SDS011;1872;51.406;6.856;2023-03-25T11:23:14;5.83;;;2.67;;
3712;SDS011;1872;51.406;6.856;2023-03-25T11:26:04;4.83;;;2.43;;
3712;SDS011;1872;51.406;6.856;2023-03-25T11:28:36;5.93;;;2.60;;
3712;SDS011;1872;51.406;6.856;2023-03-25T11:33:43;7.10;;;3.03;;
3712;SDS011;1872;51.406;6.856;2023-03-25T11:36:30;6.57;;;3.10;;
3712;SDS011;1872;51.406;6.856;2023-03-25T11:39:01;8.70;;;3.23;;
3712;SDS011;1872;51.406;6.856;2023-03-25T11:41:49;4.23;;;2.33;;
3712;SDS011;1872;51.406;6.856;2023-03-25T11:44:25;5.17;;;2.80;;
3712;SDS011;1872;51.406;6.856;2023-03-25T11:46:55;4.17;;;2.60;;
3712;SDS011;1872;51.406;6.856;2023-03-25T11:49:26;3.47;;;2.57;;
3712;SDS011;1872;51.406;6.856;2023-03-25T11:51:59;4.77;;;2.80;;
3712;SDS011;1872;51.406;6.856;2023-03-25T11:54:27;3.73;;;2.53;;
3712;SDS011;1872;51.406;6.856;2023-03-25T11:56:53;7.60;;;2.77;;
3712;SDS011;1872;51.406;6.856;2023-03-25T11:59:25;7.53;;;3.17;;
3712;SDS011;1872;51.406;6.856;2023-03-25T12:02:01;7.70;;;3.27;;
3712;SDS011;1872;51.406;6.856;2023-03-25T12:04:53;5.10;;;3.00;;
3712;SDS011;1872;51.406;6.856;2023-03-25T12:07:25;5.03;;;2.20;;
3712;SDS011;1872;51.406;6.856;2023-03-25T12:09:55;5.03;;;2.40;;
3712;SDS011;1872;51.406;6.856;2023-03-25T12:15:14;3.43;;;1.93;;
3712;SDS011;1872;51.406;6.856;2023-03-25T12:26:09;4.20;;;2.37;;
3712;SDS011;1872;51.406;6.856;2023-03-25T12:29:18;5.60;;;2.57;;
3712;SDS011;1872;51.406;6.856;2023-03-25T12:45:36;3.57;;;2.67;;
3712;SDS011;1872;51.406;6.856;2023-03-25T12:48:17;4.07;;;2.70;;
3712;SDS011;1872;51.406;6.856;2023-03-25T12:53:45;5.90;;;2.37;;
3712;SDS011;1872;51.406;6.856;2023-03-25T13:07:10;6.40;;;2.60;;
3712;SDS011;1872;51.406;6.856;2023-03-25T13:12:32;3.90;;;2.53;;
3712;SDS011;1872;51.406;6.856;2023-03-25T13:15:16;7.50;;;2.77;;
3712;SDS011;1872;51.406;6.856;2023-03-25T13:20:27;3.03;;;2.17;;
3712;SDS011;1872;51.406;6.856;2023-03-25T13:23:17;5.13;;;2.27;;
3712;SDS011;1872;51.406;6.856;2023-03-25T13:25:50;2.40;;;1.97;;
3712;SDS011;1872;51.406;6.856;2023-03-25T13:28:38;2.83;;;2.07;;
3712;SDS011;1872;51.406;6.856;2023-03-25T13:31:20;3.07;;;2.10;;
3712;SDS011;1872;51.406;6.856;2023-03-25T13:37:07;5.70;;;2.47;;
3712;SDS011;1872;51.406;6.856;2023-03-25T13:42:09;3.50;;;2.03;;
3712;SDS011;1872;51.406;6.856;2023-03-25T13:44:41;3.03;;;2.43;;
3712;SDS011;1872;51.406;6.856;2023-03-25T13:49:51;4.13;;;1.97;;
3712;SDS011;1872;51.406;6.856;2023-03-25T13:52:25;2.83;;;2.00;;
3712;SDS011;1872;51.406;6.856;2023-03-25T13:55:08;2.03;;;1.90;;
3712;SDS011;1872;51.406;6.856;2023-03-25T14:01:05;1.50;;;1.40;;
3712;SDS011;1872;51.406;6.856;2023-03-25T14:12:38;7.33;;;3.40;;
3712;SDS011;1872;51.406;6.856;2023-03-25T14:15:20;5.33;;;2.23;;
3712;SDS011;1872;51.406;6.856;2023-03-25T14:18:03;3.00;;;2.03;;
3712;SDS011;1872;51.406;6.856;2023-03-25T14:20:35;3.53;;;2.53;;
3712;SDS011;1872;51.406;6.856;2023-03-25T14:23:05;5.33;;;1.97;;
3712;SDS011;1872;51.406;6.856;2023-03-25T14:25:37;6.43;;;2.20;;
3712;SDS011;1872;51.406;6.856;2023-03-25T14:28:04;7.50;;;2.80;;
3712;SDS011;1872;51.406;6.856;2023-03-25T14:30:31;5.07;;;3.30;;
3712;SDS011;1872;51.406;6.856;2023-03-25T14:32:58;8.53;;;3.50;;
3712;SDS011;1872;51.406;6.856;2023-03-25T14:48:29;2.10;;;1.50;;
3712;SDS011;1872;51.406;6.856;2023-03-25T14:54:15;5.27;;;2.60;;
3712;SDS011;1872;51.406;6.856;2023-03-25T14:57:06;4.93;;;2.60;;
3712;SDS011;1872;51.406;6.856;2023-03-25T14:59:35;4.23;;;3.00;;
3712;SDS011;1872;51.406;6.856;2023-03-25T15:02:14;5.83;;;3.90;;
3712;SDS011;1872;51.406;6.856;2023-03-25T15:04:50;7.57;;;5.50;;
3712;SDS011;1872;51.406;6.856;2023-03-25T15:07:37;8.40;;;6.00;;
3712;SDS011;1872;51.406;6.856;2023-03-25T15:10:22;12.90;;;5.50;;
3712;SDS011;1872;51.406;6.856;2023-03-25T15:13:04;9.80;;;6.03;;
3712;SDS011;1872;51.406;6.856;2023-03-25T15:18:09;4.70;;;4.20;;
3712;SDS011;1872;51.406;6.856;2023-03-25T15:20:36;5.73;;;4.10;;
3712;SDS011;1872;51.406;6.856;2023-03-25T15:25:45;5.60;;;2.87;;
3712;SDS011;1872;51.406;6.856;2023-03-25T15:31:42;2.97;;;2.70;;
3712;SDS011;1872;51.406;6.856;2023-03-25T15:41:59;5.27;;;3.60;;
3712;SDS011;1872;51.406;6.856;2023-03-25T15:44:42;4.40;;;3.33;;
3712;SDS011;1872;51.406;6.856;2023-03-25T15:58:11;3.97;;;3.10;;
3712;SDS011;1872;51.406;6.856;2023-03-25T16:00:46;3.00;;;2.67;;
3712;SDS011;1872;51.406;6.856;2023-03-25T16:03:20;4.40;;;3.00;;
3712;SDS011;1872;51.406;6.856;2023-03-25T16:05:51;3.53;;;2.83;;
3712;SDS011;1872;51.406;6.856;2023-03-25T16:08:40;4.50;;;3.00;;
3712;SDS011;1872;51.406;6.856;2023-03-25T16:13:44;3.20;;;2.37;;
3712;SDS011;1872;51.406;6.856;2023-03-25T16:16:14;5.77;;;3.00;;
3712;SDS011;1872;51.406;6.856;2023-03-25T16:18:42;7.97;;;2.20;;
3712;SDS011;1872;51.406;6.856;2023-03-25T16:21:10;2.90;;;2.20;;
3712;SDS011;1872;51.406;6.856;2023-03-25T16:23:36;4.80;;;3.37;;
3712;SDS011;1872;51.406;6.856;2023-03-25T16:26:05;3.77;;;3.10;;
3712;SDS011;1872;51.406;6.856;2023-03-25T16:28:32;3.00;;;2.70;;
3712;SDS011;1872;51.406;6.856;2023-03-25T16:31:02;3.80;;;2.53;;
3712;SDS011;1872;51.406;6.856;2023-03-25T16:33:29;4.50;;;2.97;;
3712;SDS011;1872;51.406;6.856;2023-03-25T16:36:07;5.43;;;2.77;;
3712;SDS011;1872;51.406;6.856;2023-03-25T16:38:39;3.50;;;3.10;;
3712;SDS011;1872;51.406;6.856;2023-03-25T16:41:12;4.97;;;2.57;;
3712;SDS011;1872;51.406;6.856;2023-03-25T16:43:38;5.33;;;2.67;;
3712;SDS011;1872;51.406;6.856;2023-03-25T16:46:06;8.50;;;3.10;;
3712;SDS011;1872;51.406;6.856;2023-03-25T16:48:34;9.53;;;3.60;;
3712;SDS011;1872;51.406;6.856;2023-03-25T16:51:15;6.73;;;3.20;;
3712;SDS011;1872;51.406;6.856;2023-03-25T16:53:48;9.53;;;4.17;;
3712;SDS011;1872;51.406;6.856;2023-03-25T17:01:38;7.33;;;4.93;;
3712;SDS011;1872;51.406;6.856;2023-03-25T17:04:09;7.90;;;5.37;;
3712;SDS011;1872;51.406;6.856;2023-03-25T17:06:36;4.93;;;3.90;;
3712;SDS011;1872;51.406;6.856;2023-03-25T17:09:38;9.50;;;4.23;;
3712;SDS011;1872;51.406;6.856;2023-03-25T17:12:08;6.00;;;3.77;;
3712;SDS011;1872;51.406;6.856;2023-03-25T17:14:40;7.97;;;3.80;;
3712;SDS011;1872;51.406;6.856;2023-03-25T17:19:52;6.10;;;3.40;;
3712;SDS011;1872;51.406;6.856;2023-03-25T17:22:26;6.00;;;3.50;;
3712;SDS011;1872;51.406;6.856;2023-03-25T17:27:52;5.57;;;3.40;;
3712;SDS011;1872;51.406;6.856;2023-03-25T17:33:11;9.60;;;3.87;;
3712;SDS011;1872;51.406;6.856;2023-03-25T17:35:40;7.57;;;4.50;;
3712;SDS011;1872;51.406;6.856;2023-03-25T17:38:10;6.60;;;4.87;;
3712;SDS011;1872;51.406;6.856;2023-03-25T17:40:42;5.33;;;4.50;;
3712;SDS011;1872;51.406;6.856;2023-03-25T17:43:14;7.77;;;4.00;;
3712;SDS011;1872;51.406;6.856;2023-03-25T17:45:42;8.80;;;3.87;;
3712;SDS011;1872;51.406;6.856;2023-03-25T17:48:09;6.70;;;3.80;;
3712;SDS011;1872;51.406;6.856;2023-03-25T17:50:47;5.40;;;4.40;;
3712;SDS011;1872;51.406;6.856;2023-03-25T17:53:18;9.87;;;4.33;;
3712;SDS011;1872;51.406;6.856;2023-03-25T17:55:44;5.57;;;4.90;;
3712;SDS011;1872;51.406;6.856;2023-03-25T17:58:11;3.90;;;3.50;;
3712;SDS011;1872;51.406;6.856;2023-03-25T18:00:37;6.60;;;4.27;;
3712;SDS011;1872;51.406;6.856;2023-03-25T18:03:16;6.90;;;5.17;;
3712;SDS011;1872;51.406;6.856;2023-03-25T18:05:44;5.60;;;3.60;;
3712;SDS011;1872;51.406;6.856;2023-03-25T18:08:14;7.40;;;4.40;;
3712;SDS011;1872;51.406;6.856;2023-03-25T18:10:41;8.77;;;5.57;;
3712;SDS011;1872;51.406;6.856;2023-03-25T18:13:07;7.87;;;5.60;;
3712;SDS011;1872;51.406;6.856;2023-03-25T18:15:33;8.70;;;5.40;;
3712;SDS011;1872;51.406;6.856;2023-03-25T18:18:00;7.53;;;4.83;;
3712;SDS011;1872;51.406;6.856;2023-03-25T18:20:31;6.13;;;4.17;;
3712;SDS011;1872;51.406;6.856;2023-03-25T18:22:58;7.93;;;3.80;;
3712;SDS011;1872;51.406;6.856;2023-03-25T18:25:24;6.13;;;3.80;;
3712;SDS011;1872;51.406;6.856;2023-03-25T18:27:51;5.70;;;4.63;;
3712;SDS011;1872;51.406;6.856;2023-03-25T18:30:20;8.23;;;4.10;;
3712;SDS011;1872;51.406;6.856;2023-03-25T18:32:52;5.67;;;3.70;;
3712;SDS011;1872;51.406;6.856;2023-03-25T18:35:18;6.03;;;3.90;;
3712;SDS011;1872;51.406;6.856;2023-03-25T18:37:44;6.30;;;4.40;;
3712;SDS011;1872;51.406;6.856;2023-03-25T18:42:48;16.60;;;4.40;;
3712;SDS011;1872;51.406;6.856;2023-03-25T18:45:15;10.33;;;4.67;;
3712;SDS011;1872;51.406;6.856;2023-03-25T18:47:48;8.93;;;4.57;;
3712;SDS011;1872;51.406;6.856;2023-03-25T18:50:25;6.13;;;3.70;;
3712;SDS011;1872;51.406;6.856;2023-03-25T18:52:55;7.60;;;4.30;;
3712;SDS011;1872;51.406;6.856;2023-03-25T18:55:22;4.30;;;3.50;;